sensor_id;sensor_type;location;lat;lon;timestamp;temperature;humidity
80254;DHT22;69563;37.974;23.708;2023-09-19T00:00:20;26.50;41.30
80254;DHT22;69563;37.974;23.708;2023-09-19T00:02:56;26.50;41.30
80254;DHT22;69563;37.974;23.708;2023-09-19T00:05:23;26.50;41.30
80254;DHT22;69563;37.974;23.708;2023-09-19T00:07:53;26.50;41.30
80254;DHT22;69563;37.974;23.708;2023-09-19T00:10:23;26.50;41.40
80254;DHT22;69563;37.974;23.708;2023-09-19T00:12:55;26.50;41.30
80254;DHT22;69563;37.974;23.708;2023-09-19T00:15:25;26.50;41.30
80254;DHT22;69563;37.974;23.708;2023-09-19T00:17:54;26.50;41.40
80254;DHT22;69563;37.974;23.708;2023-09-19T00:20:21;26.50;41.50
80254;DHT22;69563;37.974;23.708;2023-09-19T00:22:49;26.50;41.40
80254;DHT22;69563;37.974;23.708;2023-09-19T00:25:19;26.50;41.50
80254;DHT22;69563;37.974;23.708;2023-09-19T00:27:48;26.50;41.50
80254;DHT22;69563;37.974;23.708;2023-09-19T00:30:17;26.50;41.50
80254;DHT22;69563;37.974;23.708;2023-09-19T00:32:47;26.50;41.50
80254;DHT22;69563;37.974;23.708;2023-09-19T00:35:16;26.50;41.50
80254;DHT22;69563;37.974;23.708;2023-09-19T00:37:42;26.50;41.50
80254;DHT22;69563;37.974;23.708;2023-09-19T00:40:09;26.50;41.60
80254;DHT22;69563;37.974;23.708;2023-09-19T00:42:39;26.50;41.50
80254;DHT22;69563;37.974;23.708;2023-09-19T00:45:09;26.50;41.60
80254;DHT22;69563;37.974;23.708;2023-09-19T00:47:44;26.40;41.60
80254;DHT22;69563;37.974;23.708;2023-09-19T00:50:11;26.40;41.60
80254;DHT22;69563;37.974;23.708;2023-09-19T00:52:41;26.40;41.60
80254;DHT22;69563;37.974;23.708;2023-09-19T00:55:11;26.40;42.60
80254;DHT22;69563;37.974;23.708;2023-09-19T00:57:40;26.40;41.60
80254;DHT22;69563;37.974;23.708;2023-09-19T01:00:07;26.40;41.60
80254;DHT22;69563;37.974;23.708;2023-09-19T01:02:36;26.40;41.60
80254;DHT22;69563;37.974;23.708;2023-09-19T01:05:02;26.40;41.60
80254;DHT22;69563;37.974;23.708;2023-09-19T01:07:31;26.40;41.60
80254;DHT22;69563;37.974;23.708;2023-09-19T01:09:59;26.40;41.60
80254;DHT22;69563;37.974;23.708;2023-09-19T01:12:33;26.40;41.60
80254;DHT22;69563;37.974;23.708;2023-09-19T01:21:12;26.40;41.70
80254;DHT22;69563;37.974;23.708;2023-09-19T01:32:04;26.40;41.80
80254;DHT22;69563;37.974;23.708;2023-09-19T01:34:51;26.40;41.80
80254;DHT22;69563;37.974;23.708;2023-09-19T01:37:20;26.30;41.70
80254;DHT22;69563;37.974;23.708;2023-09-19T01:39:58;26.30;41.80
80254;DHT22;69563;37.974;23.708;2023-09-19T01:42:57;26.30;41.80
80254;DHT22;69563;37.974;23.708;2023-09-19T01:45:35;26.40;41.80
80254;DHT22;69563;37.974;23.708;2023-09-19T01:48:34;26.30;41.80
80254;DHT22;69563;37.974;23.708;2023-09-19T01:51:02;26.40;41.80
80254;DHT22;69563;37.974;23.708;2023-09-19T01:53:40;26.30;41.80
80254;DHT22;69563;37.974;23.708;2023-09-19T01:56:15;26.40;42.00
80254;DHT22;69563;37.974;23.708;2023-09-19T01:58:50;26.30;41.90
80254;DHT22;69563;37.974;23.708;2023-09-19T02:01:22;26.30;41.80
80254;DHT22;69563;37.974;23.708;2023-09-19T02:03:50;26.40;41.80
80254;DHT22;69563;37.974;23.708;2023-09-19T02:06:17;26.40;41.80
80254;DHT22;69563;37.974;23.708;2023-09-19T02:08:44;26.40;41.80
80254;DHT22;69563;37.974;23.708;2023-09-19T02:11:13;26.40;41.80
80254;DHT22;69563;37.974;23.708;2023-09-19T02:13:40;26.40;41.80
80254;DHT22;69563;37.974;23.708;2023-09-19T02:16:06;26.40;41.80
80254;DHT22;69563;37.974;23.708;2023-09-19T02:18:32;26.40;42.80
80254;DHT22;69563;37.974;23.708;2023-09-19T02:21:01;26.40;41.90
80254;DHT22;69563;37.974;23.708;2023-09-19T02:23:27;26.40;41.90
80254;DHT22;69563;37.974;23.708;2023-09-19T02:25:53;26.40;41.90
80254;DHT22;69563;37.974;23.708;2023-09-19T02:28:19;26.40;41.90
80254;DHT22;69563;37.974;23.708;2023-09-19T02:30:48;26.40;42.00
80254;DHT22;69563;37.974;23.708;2023-09-19T02:33:16;26.30;41.80
80254;DHT22;69563;37.974;23.708;2023-09-19T02:35:43;26.40;42.00
80254;DHT22;69563;37.974;23.708;2023-09-19T02:38:08;26.40;42.00
80254;DHT22;69563;37.974;23.708;2023-09-19T02:40:37;26.40;42.00
80254;DHT22;69563;37.974;23.708;2023-09-19T02:43:03;26.30;41.90
80254;DHT22;69563;37.974;23.708;2023-09-19T02:45:30;26.40;42.00
80254;DHT22;69563;37.974;23.708;2023-09-19T02:47:57;26.40;42.00
80254;DHT22;69563;37.974;23.708;2023-09-19T02:50:23;26.40;42.00
80254;DHT22;69563;37.974;23.708;2023-09-19T02:52:49;26.30;41.90
80254;DHT22;69563;37.974;23.708;2023-09-19T02:55:19;26.40;42.00
80254;DHT22;69563;37.974;23.708;2023-09-19T02:57:52;26.40;42.00
80254;DHT22;69563;37.974;23.708;2023-09-19T03:00:20;26.40;42.00
80254;DHT22;69563;37.974;23.708;2023-09-19T03:02:48;26.30;42.00
80254;DHT22;69563;37.974;23.708;2023-09-19T03:05:13;26.40;42.10
80254;DHT22;69563;37.974;23.708;2023-09-19T03:07:39;26.40;42.10
80254;DHT22;69563;37.974;23.708;2023-09-19T03:10:06;26.30;42.00
80254;DHT22;69563;37.974;23.708;2023-09-19T03:12:33;26.30;42.00
80254;DHT22;69563;37.974;23.708;2023-09-19T03:14:59;26.30;42.00
80254;DHT22;69563;37.974;23.708;2023-09-19T03:17:25;26.30;42.10
80254;DHT22;69563;37.974;23.708;2023-09-19T03:19:51;26.30;42.00
80254;DHT22;69563;37.974;23.708;2023-09-19T03:22:17;26.30;42.10
80254;DHT22;69563;37.974;23.708;2023-09-19T03:24:43;26.30;42.10
80254;DHT22;69563;37.974;23.708;2023-09-19T03:27:09;26.30;42.10
80254;DHT22;69563;37.974;23.708;2023-09-19T03:29:35;26.30;42.20
80254;DHT22;69563;37.974;23.708;2023-09-19T03:32:01;26.30;42.20
80254;DHT22;69563;37.974;23.708;2023-09-19T03:34:27;26.30;42.20
80254;DHT22;69563;37.974;23.708;2023-09-19T03:36:53;26.30;42.20
80254;DHT22;69563;37.974;23.708;2023-09-19T03:39:19;26.20;42.20
80254;DHT22;69563;37.974;23.708;2023-09-19T03:41:45;26.30;42.20
80254;DHT22;69563;37.974;23.708;2023-09-19T03:44:10;26.30;42.30
80254;DHT22;69563;37.974;23.708;2023-09-19T03:46:36;26.20;42.20
80254;DHT22;69563;37.974;23.708;2023-09-19T03:49:03;26.30;42.30
80254;DHT22;69563;37.974;23.708;2023-09-19T03:51:28;26.20;42.20
80254;DHT22;69563;37.974;23.708;2023-09-19T03:53:55;26.30;42.30
80254;DHT22;69563;37.974;23.708;2023-09-19T03:56:21;26.30;42.30
80254;DHT22;69563;37.974;23.708;2023-09-19T03:58:47;26.30;42.30
80254;DHT22;69563;37.974;23.708;2023-09-19T04:01:13;26.30;42.30
80254;DHT22;69563;37.974;23.708;2023-09-19T04:03:39;26.30;42.30
80254;DHT22;69563;37.974;23.708;2023-09-19T04:06:13;26.20;42.20
80254;DHT22;69563;37.974;23.708;2023-09-19T04:08:39;26.20;42.20
80254;DHT22;69563;37.974;23.708;2023-09-19T04:11:05;26.20;42.30
80254;DHT22;69563;37.974;23.708;2023-09-19T04:13:31;26.30;42.40
80254;DHT22;69563;37.974;23.708;2023-09-19T04:15:56;26.20;42.30
80254;DHT22;69563;37.974;23.708;2023-09-19T04:18:22;26.20;42.30
80254;DHT22;69563;37.974;23.708;2023-09-19T04:20:52;26.20;42.30
80254;DHT22;69563;37.974;23.708;2023-09-19T04:23:19;26.20;42.30
80254;DHT22;69563;37.974;23.708;2023-09-19T04:25:47;26.20;42.30
80254;DHT22;69563;37.974;23.708;2023-09-19T04:28:14;26.20;42.40
80254;DHT22;69563;37.974;23.708;2023-09-19T04:30:41;26.20;42.40
80254;DHT22;69563;37.974;23.708;2023-09-19T04:33:07;26.20;42.40
80254;DHT22;69563;37.974;23.708;2023-09-19T04:35:33;26.20;42.40
80254;DHT22;69563;37.974;23.708;2023-09-19T04:38:00;26.20;42.40
80254;DHT22;69563;37.974;23.708;2023-09-19T04:40:26;26.20;43.30
80254;DHT22;69563;37.974;23.708;2023-09-19T04:42:56;26.20;42.40
80254;DHT22;69563;37.974;23.708;2023-09-19T04:45:26;26.20;42.40
80254;DHT22;69563;37.974;23.708;2023-09-19T04:47:52;26.30;42.50
80254;DHT22;69563;37.974;23.708;2023-09-19T04:50:19;26.20;42.40
80254;DHT22;69563;37.974;23.708;2023-09-19T04:52:49;26.30;42.40
80254;DHT22;69563;37.974;23.708;2023-09-19T04:55:17;26.30;42.30
80254;DHT22;69563;37.974;23.708;2023-09-19T04:57:44;26.30;42.40
80254;DHT22;69563;37.974;23.708;2023-09-19T05:00:12;26.30;42.40
80254;DHT22;69563;37.974;23.708;2023-09-19T05:02:40;26.30;42.30
80254;DHT22;69563;37.974;23.708;2023-09-19T05:05:08;26.40;42.30
80254;DHT22;69563;37.974;23.708;2023-09-19T05:07:34;26.40;42.20
80254;DHT22;69563;37.974;23.708;2023-09-19T05:10:00;26.50;42.20
80254;DHT22;69563;37.974;23.708;2023-09-19T05:12:26;26.50;42.10
80254;DHT22;69563;37.974;23.708;2023-09-19T05:14:52;26.50;41.90
80254;DHT22;69563;37.974;23.708;2023-09-19T05:17:18;26.60;41.80
80254;DHT22;69563;37.974;23.708;2023-09-19T05:19:44;26.70;41.80
80254;DHT22;69563;37.974;23.708;2023-09-19T05:22:11;26.70;41.50
80254;DHT22;69563;37.974;23.708;2023-09-19T05:24:38;26.70;41.30
80254;DHT22;69563;37.974;23.708;2023-09-19T05:27:05;26.80;41.20
80254;DHT22;69563;37.974;23.708;2023-09-19T05:29:33;26.90;41.10
80254;DHT22;69563;37.974;23.708;2023-09-19T05:31:59;26.90;41.00
80254;DHT22;69563;37.974;23.708;2023-09-19T05:34:25;27.00;40.90
80254;DHT22;69563;37.974;23.708;2023-09-19T05:36:55;27.00;40.80
80254;DHT22;69563;37.974;23.708;2023-09-19T05:39:21;27.10;40.60
80254;DHT22;69563;37.974;23.708;2023-09-19T05:41:48;27.20;40.50
80254;DHT22;69563;37.974;23.708;2023-09-19T05:44:14;27.20;40.30
80254;DHT22;69563;37.974;23.708;2023-09-19T05:46:40;27.30;40.10
80254;DHT22;69563;37.974;23.708;2023-09-19T05:49:06;27.40;40.00
80254;DHT22;69563;37.974;23.708;2023-09-19T05:51:31;27.40;39.90
80254;DHT22;69563;37.974;23.708;2023-09-19T05:53:57;27.50;39.70
80254;DHT22;69563;37.974;23.708;2023-09-19T05:56:23;27.60;39.50
80254;DHT22;69563;37.974;23.708;2023-09-19T05:58:49;27.70;39.50
80254;DHT22;69563;37.974;23.708;2023-09-19T06:01:17;27.70;39.30
80254;DHT22;69563;37.974;23.708;2023-09-19T06:03:43;27.80;39.10
80254;DHT22;69563;37.974;23.708;2023-09-19T06:06:09;27.80;38.80
80254;DHT22;69563;37.974;23.708;2023-09-19T06:08:35;27.90;38.70
80254;DHT22;69563;37.974;23.708;2023-09-19T06:11:01;27.90;38.60
80254;DHT22;69563;37.974;23.708;2023-09-19T06:13:28;28.00;38.40
80254;DHT22;69563;37.974;23.708;2023-09-19T06:15:55;28.00;38.30
80254;DHT22;69563;37.974;23.708;2023-09-19T06:18:22;28.10;38.20
80254;DHT22;69563;37.974;23.708;2023-09-19T06:20:51;28.10;38.10
80254;DHT22;69563;37.974;23.708;2023-09-19T06:23:17;28.20;38.00
80254;DHT22;69563;37.974;23.708;2023-09-19T06:25:45;28.20;38.00
80254;DHT22;69563;37.974;23.708;2023-09-19T06:28:11;28.20;37.90
80254;DHT22;69563;37.974;23.708;2023-09-19T06:30:40;28.20;37.80
80254;DHT22;69563;37.974;23.708;2023-09-19T06:33:06;28.20;37.80
80254;DHT22;69563;37.974;23.708;2023-09-19T06:35:35;28.20;37.70
80254;DHT22;69563;37.974;23.708;2023-09-19T06:38:04;28.20;37.80
80254;DHT22;69563;37.974;23.708;2023-09-19T06:40:31;28.20;37.80
80254;DHT22;69563;37.974;23.708;2023-09-19T06:42:57;28.20;37.80
80254;DHT22;69563;37.974;23.708;2023-09-19T06:45:23;28.10;37.80
80254;DHT22;69563;37.974;23.708;2023-09-19T06:47:52;28.10;37.90
80254;DHT22;69563;37.974;23.708;2023-09-19T06:50:19;28.10;38.10
80254;DHT22;69563;37.974;23.708;2023-09-19T06:52:47;28.10;38.10
80254;DHT22;69563;37.974;23.708;2023-09-19T06:55:16;28.10;38.20
80254;DHT22;69563;37.974;23.708;2023-09-19T06:57:42;28.10;38.20
80254;DHT22;69563;37.974;23.708;2023-09-19T07:00:12;28.10;38.20
80254;DHT22;69563;37.974;23.708;2023-09-19T07:03:00;28.10;38.30
80254;DHT22;69563;37.974;23.708;2023-09-19T07:05:34;28.10;38.30
80254;DHT22;69563;37.974;23.708;2023-09-19T07:08:03;28.10;38.30
80254;DHT22;69563;37.974;23.708;2023-09-19T07:10:30;28.10;38.30
80254;DHT22;69563;37.974;23.708;2023-09-19T07:13:06;28.10;38.30
80254;DHT22;69563;37.974;23.708;2023-09-19T07:15:34;28.10;38.30
80254;DHT22;69563;37.974;23.708;2023-09-19T07:18:12;28.10;38.30
80254;DHT22;69563;37.974;23.708;2023-09-19T07:20:40;28.10;38.30
80254;DHT22;69563;37.974;23.708;2023-09-19T07:23:11;28.10;38.30
80254;DHT22;69563;37.974;23.708;2023-09-19T07:25:40;28.00;38.30
80254;DHT22;69563;37.974;23.708;2023-09-19T07:28:06;28.00;38.20
80254;DHT22;69563;37.974;23.708;2023-09-19T07:30:35;28.00;38.30
80254;DHT22;69563;37.974;23.708;2023-09-19T07:33:01;28.10;38.30
80254;DHT22;69563;37.974;23.708;2023-09-19T07:35:28;28.10;38.20
80254;DHT22;69563;37.974;23.708;2023-09-19T07:37:54;28.10;38.20
80254;DHT22;69563;37.974;23.708;2023-09-19T07:40:21;28.10;38.20
80254;DHT22;69563;37.974;23.708;2023-09-19T07:42:49;28.10;38.30
80254;DHT22;69563;37.974;23.708;2023-09-19T07:45:16;28.10;38.30
80254;DHT22;69563;37.974;23.708;2023-09-19T07:47:50;28.10;38.20
80254;DHT22;69563;37.974;23.708;2023-09-19T07:50:19;28.10;38.20
80254;DHT22;69563;37.974;23.708;2023-09-19T07:52:46;28.10;38.20
80254;DHT22;69563;37.974;23.708;2023-09-19T07:55:12;28.10;38.20
80254;DHT22;69563;37.974;23.708;2023-09-19T07:57:41;28.10;38.20
80254;DHT22;69563;37.974;23.708;2023-09-19T08:00:08;28.10;38.20
80254;DHT22;69563;37.974;23.708;2023-09-19T08:02:41;28.10;38.20
80254;DHT22;69563;37.974;23.708;2023-09-19T08:05:11;28.10;38.20
80254;DHT22;69563;37.974;23.708;2023-09-19T08:07:38;28.10;38.20
80254;DHT22;69563;37.974;23.708;2023-09-19T08:10:06;28.00;38.20
80254;DHT22;69563;37.974;23.708;2023-09-19T08:12:41;28.10;38.30
80254;DHT22;69563;37.974;23.708;2023-09-19T08:15:13;28.10;38.20
80254;DHT22;69563;37.974;23.708;2023-09-19T08:17:39;28.10;38.30
80254;DHT22;69563;37.974;23.708;2023-09-19T08:20:05;28.00;38.20
80254;DHT22;69563;37.974;23.708;2023-09-19T08:22:31;28.10;38.30
80254;DHT22;69563;37.974;23.708;2023-09-19T08:24:57;28.10;38.30
80254;DHT22;69563;37.974;23.708;2023-09-19T08:27:24;28.00;38.20
80254;DHT22;69563;37.974;23.708;2023-09-19T08:29:53;28.10;38.30
80254;DHT22;69563;37.974;23.708;2023-09-19T08:32:20;28.00;38.20
80254;DHT22;69563;37.974;23.708;2023-09-19T08:34:49;28.00;38.30
80254;DHT22;69563;37.974;23.708;2023-09-19T08:37:15;28.00;38.30
80254;DHT22;69563;37.974;23.708;2023-09-19T08:39:42;28.00;38.30
80254;DHT22;69563;37.974;23.708;2023-09-19T08:42:08;28.00;38.40
80254;DHT22;69563;37.974;23.708;2023-09-19T08:44:37;28.00;38.40
80254;DHT22;69563;37.974;23.708;2023-09-19T08:47:15;28.00;38.40
80254;DHT22;69563;37.974;23.708;2023-09-19T08:53:00;28.00;38.40
80254;DHT22;69563;37.974;23.708;2023-09-19T08:55:29;28.00;38.50
80254;DHT22;69563;37.974;23.708;2023-09-19T08:58:01;28.00;38.50
80254;DHT22;69563;37.974;23.708;2023-09-19T09:00:28;28.00;38.60
80254;DHT22;69563;37.974;23.708;2023-09-19T09:02:55;28.00;38.60
80254;DHT22;69563;37.974;23.708;2023-09-19T09:05:23;28.00;38.60
80254;DHT22;69563;37.974;23.708;2023-09-19T09:07:50;28.00;38.70
80254;DHT22;69563;37.974;23.708;2023-09-19T09:10:26;27.90;38.50
80254;DHT22;69563;37.974;23.708;2023-09-19T09:12:53;27.90;38.50
80254;DHT22;69563;37.974;23.708;2023-09-19T09:15:22;27.90;39.60
80254;DHT22;69563;37.974;23.708;2023-09-19T09:17:50;27.90;38.50
80254;DHT22;69563;37.974;23.708;2023-09-19T09:20:19;27.90;38.60
80254;DHT22;69563;37.974;23.708;2023-09-19T09:22:52;27.90;38.60
80254;DHT22;69563;37.974;23.708;2023-09-19T09:25:47;27.90;38.60
80254;DHT22;69563;37.974;23.708;2023-09-19T09:28:20;27.90;38.50
80254;DHT22;69563;37.974;23.708;2023-09-19T09:30:46;27.80;38.50
80254;DHT22;69563;37.974;23.708;2023-09-19T09:33:13;27.90;38.50
80254;DHT22;69563;37.974;23.708;2023-09-19T09:35:54;27.80;38.50
80254;DHT22;69563;37.974;23.708;2023-09-19T09:38:27;27.90;38.50
80254;DHT22;69563;37.974;23.708;2023-09-19T09:40:55;27.80;38.50
80254;DHT22;69563;37.974;23.708;2023-09-19T09:43:36;27.80;38.50
80254;DHT22;69563;37.974;23.708;2023-09-19T09:46:08;27.80;38.50
80254;DHT22;69563;37.974;23.708;2023-09-19T09:48:47;27.80;38.50
80254;DHT22;69563;37.974;23.708;2023-09-19T09:51:36;27.80;38.60
80254;DHT22;69563;37.974;23.708;2023-09-19T09:54:17;27.70;38.50
80254;DHT22;69563;37.974;23.708;2023-09-19T09:56:58;27.80;38.60
80254;DHT22;69563;37.974;23.708;2023-09-19T10:02:18;27.80;38.80
80254;DHT22;69563;37.974;23.708;2023-09-19T10:04:53;27.80;38.80
80254;DHT22;69563;37.974;23.708;2023-09-19T10:07:48;27.70;38.80
80254;DHT22;69563;37.974;23.708;2023-09-19T10:10:34;27.70;38.70
80254;DHT22;69563;37.974;23.708;2023-09-19T10:13:10;27.70;38.70
80254;DHT22;69563;37.974;23.708;2023-09-19T10:15:48;27.70;38.90
80254;DHT22;69563;37.974;23.708;2023-09-19T10:18:20;27.70;38.90
80254;DHT22;69563;37.974;23.708;2023-09-19T10:20:46;27.70;38.90
80254;DHT22;69563;37.974;23.708;2023-09-19T10:23:17;27.70;38.80
80254;DHT22;69563;37.974;23.708;2023-09-19T10:25:49;27.70;38.80
80254;DHT22;69563;37.974;23.708;2023-09-19T10:28:16;27.70;38.80
80254;DHT22;69563;37.974;23.708;2023-09-19T10:30:50;27.70;38.80
80254;DHT22;69563;37.974;23.708;2023-09-19T10:33:18;27.70;38.80
80254;DHT22;69563;37.974;23.708;2023-09-19T10:35:49;27.70;38.80
80254;DHT22;69563;37.974;23.708;2023-09-19T10:38:23;27.70;38.70
80254;DHT22;69563;37.974;23.708;2023-09-19T10:40:54;27.70;38.80
80254;DHT22;69563;37.974;23.708;2023-09-19T10:43:29;27.70;38.70
80254;DHT22;69563;37.974;23.708;2023-09-19T10:46:00;27.70;38.70
80254;DHT22;69563;37.974;23.708;2023-09-19T10:48:26;27.70;38.70
80254;DHT22;69563;37.974;23.708;2023-09-19T10:51:18;27.70;38.60
80254;DHT22;69563;37.974;23.708;2023-09-19T10:53:52;27.70;38.60
80254;DHT22;69563;37.974;23.708;2023-09-19T10:56:24;27.70;38.70
80254;DHT22;69563;37.974;23.708;2023-09-19T10:59:15;27.70;38.60
80254;DHT22;69563;37.974;23.708;2023-09-19T11:04:24;27.60;38.70
80254;DHT22;69563;37.974;23.708;2023-09-19T11:09:54;27.70;38.80
80254;DHT22;69563;37.974;23.708;2023-09-19T11:15:02;27.60;38.90
80254;DHT22;69563;37.974;23.708;2023-09-19T11:17:37;27.60;38.90
80254;DHT22;69563;37.974;23.708;2023-09-19T11:30:47;27.60;39.00
80254;DHT22;69563;37.974;23.708;2023-09-19T11:36:05;27.60;39.00
80254;DHT22;69563;37.974;23.708;2023-09-19T11:46:27;27.60;39.10
80254;DHT22;69563;37.974;23.708;2023-09-19T11:49:06;27.60;39.10
80254;DHT22;69563;37.974;23.708;2023-09-19T11:51:42;27.60;39.10
80254;DHT22;69563;37.974;23.708;2023-09-19T11:54:13;27.60;39.10
80254;DHT22;69563;37.974;23.708;2023-09-19T11:56:54;27.50;38.90
80254;DHT22;69563;37.974;23.708;2023-09-19T11:59:31;27.60;39.00
80254;DHT22;69563;37.974;23.708;2023-09-19T12:02:05;27.60;39.10
80254;DHT22;69563;37.974;23.708;2023-09-19T12:04:43;27.60;39.20
80254;DHT22;69563;37.974;23.708;2023-09-19T12:07:14;27.50;39.00
80254;DHT22;69563;37.974;23.708;2023-09-19T12:10:04;27.60;39.10
80254;DHT22;69563;37.974;23.708;2023-09-19T12:12:30;27.60;39.20
80254;DHT22;69563;37.974;23.708;2023-09-19T12:14:58;27.60;39.40
80254;DHT22;69563;37.974;23.708;2023-09-19T12:17:38;27.50;39.40
80254;DHT22;69563;37.974;23.708;2023-09-19T12:20:05;27.60;39.40
80254;DHT22;69563;37.974;23.708;2023-09-19T12:22:43;27.50;39.40
80254;DHT22;69563;37.974;23.708;2023-09-19T12:25:09;27.50;39.40
80254;DHT22;69563;37.974;23.708;2023-09-19T12:27:43;27.60;39.40
80254;DHT22;69563;37.974;23.708;2023-09-19T12:30:10;27.50;39.40
80254;DHT22;69563;37.974;23.708;2023-09-19T12:32:39;27.50;40.40
80254;DHT22;69563;37.974;23.708;2023-09-19T12:35:07;27.50;39.40
80254;DHT22;69563;37.974;23.708;2023-09-19T12:37:52;27.50;39.30
80254;DHT22;69563;37.974;23.708;2023-09-19T12:40:21;27.50;39.10
80254;DHT22;69563;37.974;23.708;2023-09-19T12:42:54;27.50;39.00
80254;DHT22;69563;37.974;23.708;2023-09-19T12:45:29;27.50;39.00
80254;DHT22;69563;37.974;23.708;2023-09-19T12:48:21;27.50;38.90
80254;DHT22;69563;37.974;23.708;2023-09-19T12:51:13;27.50;38.80
80254;DHT22;69563;37.974;23.708;2023-09-19T12:53:43;27.50;38.70
80254;DHT22;69563;37.974;23.708;2023-09-19T12:56:17;27.50;38.70
80254;DHT22;69563;37.974;23.708;2023-09-19T12:58:57;27.50;38.70
80254;DHT22;69563;37.974;23.708;2023-09-19T13:01:26;27.50;38.70
80254;DHT22;69563;37.974;23.708;2023-09-19T13:04:15;27.50;38.80
80254;DHT22;69563;37.974;23.708;2023-09-19T13:09:12;27.50;38.90
80254;DHT22;69563;37.974;23.708;2023-09-19T13:11:40;27.50;39.00
80254;DHT22;69563;37.974;23.708;2023-09-19T13:14:24;27.50;39.20
80254;DHT22;69563;37.974;23.708;2023-09-19T13:17:00;27.50;39.30
80254;DHT22;69563;37.974;23.708;2023-09-19T13:19:41;27.50;39.40
80254;DHT22;69563;37.974;23.708;2023-09-19T13:25:07;27.50;39.40
80254;DHT22;69563;37.974;23.708;2023-09-19T13:27:37;27.50;39.40
80254;DHT22;69563;37.974;23.708;2023-09-19T13:30:03;27.40;39.30
80254;DHT22;69563;37.974;23.708;2023-09-19T13:32:32;27.50;39.40
80254;DHT22;69563;37.974;23.708;2023-09-19T13:34:58;27.50;39.40
80254;DHT22;69563;37.974;23.708;2023-09-19T13:37:24;27.50;39.40
80254;DHT22;69563;37.974;23.708;2023-09-19T13:39:52;27.40;39.30
80254;DHT22;69563;37.974;23.708;2023-09-19T13:42:17;27.40;40.30
80254;DHT22;69563;37.974;23.708;2023-09-19T13:44:44;27.50;39.40
80254;DHT22;69563;37.974;23.708;2023-09-19T13:47:10;27.50;39.40
80254;DHT22;69563;37.974;23.708;2023-09-19T13:49:38;27.50;39.40
80254;DHT22;69563;37.974;23.708;2023-09-19T13:52:04;27.40;39.30
80254;DHT22;69563;37.974;23.708;2023-09-19T13:54:31;27.50;39.40
80254;DHT22;69563;37.974;23.708;2023-09-19T13:56:57;27.50;39.40
80254;DHT22;69563;37.974;23.708;2023-09-19T13:59:24;27.50;39.30
80254;DHT22;69563;37.974;23.708;2023-09-19T14:01:50;27.50;39.20
80254;DHT22;69563;37.974;23.708;2023-09-19T14:04:20;27.40;39.10
80254;DHT22;69563;37.974;23.708;2023-09-19T14:06:46;27.40;39.10
80254;DHT22;69563;37.974;23.708;2023-09-19T14:09:12;27.50;39.10
80254;DHT22;69563;37.974;23.708;2023-09-19T14:11:39;27.40;39.00
80254;DHT22;69563;37.974;23.708;2023-09-19T14:14:05;27.40;39.00
80254;DHT22;69563;37.974;23.708;2023-09-19T14:16:31;27.40;39.00
80254;DHT22;69563;37.974;23.708;2023-09-19T14:18:57;27.40;38.90
80254;DHT22;69563;37.974;23.708;2023-09-19T14:21:27;27.40;38.90
80254;DHT22;69563;37.974;23.708;2023-09-19T14:23:52;27.40;38.90
80254;DHT22;69563;37.974;23.708;2023-09-19T14:26:20;27.40;38.90
80254;DHT22;69563;37.974;23.708;2023-09-19T14:28:46;27.40;38.90
80254;DHT22;69563;37.974;23.708;2023-09-19T14:31:11;27.40;39.00
80254;DHT22;69563;37.974;23.708;2023-09-19T14:33:38;27.40;39.10
80254;DHT22;69563;37.974;23.708;2023-09-19T14:36:08;27.40;39.10
80254;DHT22;69563;37.974;23.708;2023-09-19T14:38:38;27.30;39.10
80254;DHT22;69563;37.974;23.708;2023-09-19T14:41:05;27.30;39.20
80254;DHT22;69563;37.974;23.708;2023-09-19T14:43:31;27.30;39.20
80254;DHT22;69563;37.974;23.708;2023-09-19T14:46:05;27.40;39.30
80254;DHT22;69563;37.974;23.708;2023-09-19T14:48:35;27.40;39.30
80254;DHT22;69563;37.974;23.708;2023-09-19T14:51:06;27.30;39.20
80254;DHT22;69563;37.974;23.708;2023-09-19T14:53:34;27.30;39.20
80254;DHT22;69563;37.974;23.708;2023-09-19T14:56:01;27.30;39.20
80254;DHT22;69563;37.974;23.708;2023-09-19T14:58:29;27.40;39.30
80254;DHT22;69563;37.974;23.708;2023-09-19T15:01:15;27.30;39.20
80254;DHT22;69563;37.974;23.708;2023-09-19T15:03:42;27.40;39.30
80254;DHT22;69563;37.974;23.708;2023-09-19T15:06:10;27.30;39.20
80254;DHT22;69563;37.974;23.708;2023-09-19T15:08:38;27.30;39.20
80254;DHT22;69563;37.974;23.708;2023-09-19T15:11:04;27.30;39.20
80254;DHT22;69563;37.974;23.708;2023-09-19T15:13:34;27.30;39.20
80254;DHT22;69563;37.974;23.708;2023-09-19T15:16:07;27.30;39.20
80254;DHT22;69563;37.974;23.708;2023-09-19T15:18:41;27.30;39.30
80254;DHT22;69563;37.974;23.708;2023-09-19T15:21:11;27.30;39.20
80254;DHT22;69563;37.974;23.708;2023-09-19T15:23:38;27.20;39.30
80254;DHT22;69563;37.974;23.708;2023-09-19T15:26:04;27.20;39.10
80254;DHT22;69563;37.974;23.708;2023-09-19T15:28:31;27.20;39.20
80254;DHT22;69563;37.974;23.708;2023-09-19T15:31:04;27.30;39.30
80254;DHT22;69563;37.974;23.708;2023-09-19T15:33:32;27.30;39.20
80254;DHT22;69563;37.974;23.708;2023-09-19T15:36:09;27.30;39.20
80254;DHT22;69563;37.974;23.708;2023-09-19T15:39:04;27.30;39.20
80254;DHT22;69563;37.974;23.708;2023-09-19T15:41:44;27.30;39.20
80254;DHT22;69563;37.974;23.708;2023-09-19T15:44:14;27.30;39.30
80254;DHT22;69563;37.974;23.708;2023-09-19T15:46:43;27.30;39.30
80254;DHT22;69563;37.974;23.708;2023-09-19T15:49:10;27.30;39.30
80254;DHT22;69563;37.974;23.708;2023-09-19T15:51:36;27.30;39.40
80254;DHT22;69563;37.974;23.708;2023-09-19T15:54:11;27.30;39.50
80254;DHT22;69563;37.974;23.708;2023-09-19T15:56:39;27.30;39.40
80254;DHT22;69563;37.974;23.708;2023-09-19T15:59:07;27.30;39.40
80254;DHT22;69563;37.974;23.708;2023-09-19T16:01:33;27.30;39.50
80254;DHT22;69563;37.974;23.708;2023-09-19T16:03:59;27.30;39.50
80254;DHT22;69563;37.974;23.708;2023-09-19T16:06:27;27.30;39.50
80254;DHT22;69563;37.974;23.708;2023-09-19T16:08:58;27.30;39.60
80254;DHT22;69563;37.974;23.708;2023-09-19T16:11:28;27.30;39.50
80254;DHT22;69563;37.974;23.708;2023-09-19T16:13:54;27.30;39.60
80254;DHT22;69563;37.974;23.708;2023-09-19T16:16:21;27.30;39.50
80254;DHT22;69563;37.974;23.708;2023-09-19T16:18:52;27.30;39.60
80254;DHT22;69563;37.974;23.708;2023-09-19T16:21:21;27.30;39.60
80254;DHT22;69563;37.974;23.708;2023-09-19T16:23:48;27.30;39.60
80254;DHT22;69563;37.974;23.708;2023-09-19T16:26:20;27.30;39.60